sensor_id;sensor_type;location;lat;lon;timestamp;P1;durP1;ratioP1;P2;durP2;ratioP2
40953;SDS011;26686;50.130;8.710;2023-06-04T00:00:29;3.03;;;1.17;;
40953;SDS011;26686;50.130;8.710;2023-06-04T00:05:31;2.78;;;1.13;;
40953;SDS011;26686;50.130;8.710;2023-06-04T00:10:33;2.50;;;1.58;;
40953;SDS011;26686;50.130;8.710;2023-06-04T00:15:35;3.05;;;1.40;;
40953;SDS011;26686;50.130;8.710;2023-06-04T00:20:37;3.65;;;1.67;;
40953;SDS011;26686;50.130;8.710;2023-06-04T00:25:38;2.05;;;0.98;;
40953;SDS011;26686;50.130;8.710;2023-06-04T00:30:40;3.33;;;1.40;;
40953;SDS011;26686;50.130;8.710;2023-06-04T00:35:42;2.40;;;1.10;;
40953;SDS011;26686;50.130;8.710;2023-06-04T00:40:43;2.33;;;1.20;;
40953;SDS011;26686;50.130;8.710;2023-06-04T00:45:45;1.65;;;0.90;;
40953;SDS011;26686;50.130;8.710;2023-06-04T00:50:47;1.92;;;1.13;;
40953;SDS011;26686;50.130;8.710;2023-06-04T00:55:50;1.98;;;1.17;;
40953;SDS011;26686;50.130;8.710;2023-06-04T01:00:52;1.95;;;1.00;;
40953;SDS011;26686;50.130;8.710;2023-06-04T01:06:04;2.28;;;1.08;;
40953;SDS011;26686;50.130;8.710;2023-06-04T01:21:47;1.58;;;1.30;;
40953;SDS011;26686;50.130;8.710;2023-06-04T01:26:52;3.95;;;1.30;;
40953;SDS011;26686;50.130;8.710;2023-06-04T01:31:57;2.05;;;0.90;;
40953;SDS011;26686;50.130;8.710;2023-06-04T01:37:00;2.20;;;1.30;;
40953;SDS011;26686;50.130;8.710;2023-06-04T01:42:01;2.85;;;1.50;;
40953;SDS011;26686;50.130;8.710;2023-06-04T01:47:03;2.70;;;1.38;;
40953;SDS011;26686;50.130;8.710;2023-06-04T01:52:05;2.25;;;1.20;;
40953;SDS011;26686;50.130;8.710;2023-06-04T01:57:08;2.55;;;1.10;;
40953;SDS011;26686;50.130;8.710;2023-06-04T02:02:11;1.70;;;0.93;;
40953;SDS011;26686;50.130;8.710;2023-06-04T02:07:12;3.58;;;1.17;;
40953;SDS011;26686;50.130;8.710;2023-06-04T02:12:21;1.67;;;1.23;;
40953;SDS011;26686;50.130;8.710;2023-06-04T02:17:23;1.55;;;1.10;;
40953;SDS011;26686;50.130;8.710;2023-06-04T02:22:25;2.92;;;1.17;;
40953;SDS011;26686;50.130;8.710;2023-06-04T02:27:27;2.35;;;0.93;;
40953;SDS011;26686;50.130;8.710;2023-06-04T02:32:29;1.90;;;1.10;;
40953;SDS011;26686;50.130;8.710;2023-06-04T02:37:30;3.08;;;1.30;;
40953;SDS011;26686;50.130;8.710;2023-06-04T02:42:32;3.70;;;1.25;;
40953;SDS011;26686;50.130;8.710;2023-06-04T02:47:34;3.25;;;1.30;;
40953;SDS011;26686;50.130;8.710;2023-06-04T02:52:35;1.52;;;1.00;;
40953;SDS011;26686;50.130;8.710;2023-06-04T02:57:42;2.83;;;1.75;;
40953;SDS011;26686;50.130;8.710;2023-06-04T03:02:45;2.60;;;1.48;;
40953;SDS011;26686;50.130;8.710;2023-06-04T03:07:48;3.83;;;1.50;;
40953;SDS011;26686;50.130;8.710;2023-06-04T03:12:49;2.90;;;1.52;;
40953;SDS011;26686;50.130;8.710;2023-06-04T03:17:52;3.05;;;1.55;;
40953;SDS011;26686;50.130;8.710;2023-06-04T03:22:54;2.65;;;1.98;;
40953;SDS011;26686;50.130;8.710;2023-06-04T03:27:55;4.13;;;2.40;;
40953;SDS011;26686;50.130;8.710;2023-06-04T03:32:57;3.50;;;1.88;;
40953;SDS011;26686;50.130;8.710;2023-06-04T03:37:59;4.25;;;1.85;;
40953;SDS011;26686;50.130;8.710;2023-06-04T03:43:01;2.83;;;2.00;;
40953;SDS011;26686;50.130;8.710;2023-06-04T03:48:05;3.95;;;2.10;;
40953;SDS011;26686;50.130;8.710;2023-06-04T03:53:06;3.80;;;1.73;;
40953;SDS011;26686;50.130;8.710;2023-06-04T03:58:08;2.75;;;1.73;;
40953;SDS011;26686;50.130;8.710;2023-06-04T04:03:12;3.83;;;1.50;;
40953;SDS011;26686;50.130;8.710;2023-06-04T04:08:14;2.38;;;1.45;;
40953;SDS011;26686;50.130;8.710;2023-06-04T04:13:18;2.60;;;1.40;;
40953;SDS011;26686;50.130;8.710;2023-06-04T04:18:20;2.45;;;1.75;;
40953;SDS011;26686;50.130;8.710;2023-06-04T04:23:23;2.20;;;1.38;;
40953;SDS011;26686;50.130;8.710;2023-06-04T04:28:25;3.85;;;1.55;;
40953;SDS011;26686;50.130;8.710;2023-06-04T04:33:29;4.10;;;1.58;;
40953;SDS011;26686;50.130;8.710;2023-06-04T04:38:38;2.42;;;1.65;;
40953;SDS011;26686;50.130;8.710;2023-06-04T04:43:39;3.85;;;1.50;;
40953;SDS011;26686;50.130;8.710;2023-06-04T04:48:41;5.30;;;1.45;;
40953;SDS011;26686;50.130;8.710;2023-06-04T04:53:43;2.58;;;1.30;;
40953;SDS011;26686;50.130;8.710;2023-06-04T04:58:45;2.80;;;1.33;;
40953;SDS011;26686;50.130;8.710;2023-06-04T05:03:46;1.65;;;1.20;;
40953;SDS011;26686;50.130;8.710;2023-06-04T05:08:49;3.92;;;1.38;;
40953;SDS011;26686;50.130;8.710;2023-06-04T05:13:51;3.72;;;1.30;;
40953;SDS011;26686;50.130;8.710;2023-06-04T05:18:52;3.20;;;1.30;;
40953;SDS011;26686;50.130;8.710;2023-06-04T05:23:54;4.53;;;1.50;;
40953;SDS011;26686;50.130;8.710;2023-06-04T05:28:56;4.93;;;1.25;;
40953;SDS011;26686;50.130;8.710;2023-06-04T05:34:00;1.73;;;1.40;;
40953;SDS011;26686;50.130;8.710;2023-06-04T05:39:08;1.70;;;1.10;;
40953;SDS011;26686;50.130;8.710;2023-06-04T05:44:10;3.03;;;1.40;;
40953;SDS011;26686;50.130;8.710;2023-06-04T05:49:11;2.33;;;1.20;;
40953;SDS011;26686;50.130;8.710;2023-06-04T05:54:14;2.05;;;1.17;;
40953;SDS011;26686;50.130;8.710;2023-06-04T05:59:15;2.40;;;1.55;;
40953;SDS011;26686;50.130;8.710;2023-06-04T06:04:17;2.63;;;1.80;;
40953;SDS011;26686;50.130;8.710;2023-06-04T06:09:19;2.45;;;1.20;;
40953;SDS011;26686;50.130;8.710;2023-06-04T06:14:21;2.13;;;1.45;;
40953;SDS011;26686;50.130;8.710;2023-06-04T06:19:24;2.60;;;1.00;;
40953;SDS011;26686;50.130;8.710;2023-06-04T06:24:26;2.85;;;1.05;;
40953;SDS011;26686;50.130;8.710;2023-06-04T06:29:27;2.85;;;1.48;;
40953;SDS011;26686;50.130;8.710;2023-06-04T06:34:29;2.25;;;1.15;;
40953;SDS011;26686;50.130;8.710;2023-06-04T06:39:31;2.55;;;1.13;;
40953;SDS011;26686;50.130;8.710;2023-06-04T06:44:33;2.05;;;1.40;;
40953;SDS011;26686;50.130;8.710;2023-06-04T06:49:35;4.10;;;1.50;;
40953;SDS011;26686;50.130;8.710;2023-06-04T06:54:37;2.22;;;1.15;;
40953;SDS011;26686;50.130;8.710;2023-06-04T06:59:38;1.65;;;0.80;;
40953;SDS011;26686;50.130;8.710;2023-06-04T07:04:40;1.52;;;0.75;;
40953;SDS011;26686;50.130;8.710;2023-06-04T07:09:42;2.85;;;0.77;;
40953;SDS011;26686;50.130;8.710;2023-06-04T07:14:44;3.10;;;0.90;;
40953;SDS011;26686;50.130;8.710;2023-06-04T07:19:46;2.72;;;0.80;;
40953;SDS011;26686;50.130;8.710;2023-06-04T07:24:48;1.00;;;0.60;;
40953;SDS011;26686;50.130;8.710;2023-06-04T07:29:49;2.75;;;0.95;;
40953;SDS011;26686;50.130;8.710;2023-06-04T07:34:51;2.47;;;0.77;;
40953;SDS011;26686;50.130;8.710;2023-06-04T07:39:52;3.50;;;1.17;;
40953;SDS011;26686;50.130;8.710;2023-06-04T07:44:54;2.45;;;0.77;;
40953;SDS011;26686;50.130;8.710;2023-06-04T07:49:55;3.20;;;0.82;;
40953;SDS011;26686;50.130;8.710;2023-06-04T07:55:04;1.90;;;0.50;;
40953;SDS011;26686;50.130;8.710;2023-06-04T08:00:06;1.38;;;0.65;;
40953;SDS011;26686;50.130;8.710;2023-06-04T08:05:09;2.20;;;0.73;;
40953;SDS011;26686;50.130;8.710;2023-06-04T08:10:11;2.22;;;0.70;;
40953;SDS011;26686;50.130;8.710;2023-06-04T08:15:12;3.05;;;0.90;;
40953;SDS011;26686;50.130;8.710;2023-06-04T08:20:14;1.67;;;0.90;;
40953;SDS011;26686;50.130;8.710;2023-06-04T08:25:16;1.85;;;1.20;;
40953;SDS011;26686;50.130;8.710;2023-06-04T08:30:18;1.85;;;0.68;;
40953;SDS011;26686;50.130;8.710;2023-06-04T08:35:20;2.60;;;0.82;;
40953;SDS011;26686;50.130;8.710;2023-06-04T08:40:22;1.83;;;0.65;;
40953;SDS011;26686;50.130;8.710;2023-06-04T08:45:23;1.85;;;0.82;;
40953;SDS011;26686;50.130;8.710;2023-06-04T08:50:26;5.00;;;0.65;;
40953;SDS011;26686;50.130;8.710;2023-06-04T08:55:28;1.67;;;1.00;;
40953;SDS011;26686;50.130;8.710;2023-06-04T09:00:31;2.95;;;0.70;;
40953;SDS011;26686;50.130;8.710;2023-06-04T09:05:33;1.90;;;0.73;;
40953;SDS011;26686;50.130;8.710;2023-06-04T09:10:37;2.03;;;0.80;;
40953;SDS011;26686;50.130;8.710;2023-06-04T09:15:39;2.00;;;1.02;;
40953;SDS011;26686;50.130;8.710;2023-06-04T09:20:41;2.47;;;0.88;;
40953;SDS011;26686;50.130;8.710;2023-06-04T09:25:42;3.70;;;1.27;;
40953;SDS011;26686;50.130;8.710;2023-06-04T09:30:51;2.47;;;0.63;;
40953;SDS011;26686;50.130;8.710;2023-06-04T09:35:54;2.30;;;0.80;;
40953;SDS011;26686;50.130;8.710;2023-06-04T09:40:58;4.13;;;0.77;;
40953;SDS011;26686;50.130;8.710;2023-06-04T09:46:14;2.08;;;0.70;;
40953;SDS011;26686;50.130;8.710;2023-06-04T09:51:17;1.65;;;0.57;;
40953;SDS011;26686;50.130;8.710;2023-06-04T09:56:21;2.00;;;0.70;;
40953;SDS011;26686;50.130;8.710;2023-06-04T10:01:23;0.90;;;0.50;;
40953;SDS011;26686;50.130;8.710;2023-06-04T10:06:27;1.55;;;0.65;;
40953;SDS011;26686;50.130;8.710;2023-06-04T10:11:35;1.48;;;0.70;;
40953;SDS011;26686;50.130;8.710;2023-06-04T10:16:42;2.28;;;0.90;;
40953;SDS011;26686;50.130;8.710;2023-06-04T10:21:45;2.10;;;0.60;;
40953;SDS011;26686;50.130;8.710;2023-06-04T10:26:46;2.88;;;0.80;;
40953;SDS011;26686;50.130;8.710;2023-06-04T10:31:52;2.13;;;0.47;;
40953;SDS011;26686;50.130;8.710;2023-06-04T10:36:55;3.22;;;1.52;;
40953;SDS011;26686;50.130;8.710;2023-06-04T10:41:58;2.03;;;0.80;;
40953;SDS011;26686;50.130;8.710;2023-06-04T10:47:04;3.58;;;0.70;;
40953;SDS011;26686;50.130;8.710;2023-06-04T10:52:09;1.50;;;0.60;;
40953;SDS011;26686;50.130;8.710;2023-06-04T10:57:15;2.33;;;0.60;;
40953;SDS011;26686;50.130;8.710;2023-06-04T11:02:18;1.08;;;0.50;;
40953;SDS011;26686;50.130;8.710;2023-06-04T11:07:20;1.73;;;0.60;;
40953;SDS011;26686;50.130;8.710;2023-06-04T11:12:21;2.45;;;1.02;;
40953;SDS011;26686;50.130;8.710;2023-06-04T11:17:23;1.23;;;0.57;;
40953;SDS011;26686;50.130;8.710;2023-06-04T11:22:25;1.50;;;0.87;;
40953;SDS011;26686;50.130;8.710;2023-06-04T11:27:26;1.40;;;0.85;;
40953;SDS011;26686;50.130;8.710;2023-06-04T11:32:37;1.58;;;0.82;;
40953;SDS011;26686;50.130;8.710;2023-06-04T11:37:39;3.43;;;1.13;;
40953;SDS011;26686;50.130;8.710;2023-06-04T11:42:41;1.27;;;0.65;;
40953;SDS011;26686;50.130;8.710;2023-06-04T11:47:46;2.90;;;0.82;;
40953;SDS011;26686;50.130;8.710;2023-06-04T11:52:51;6.43;;;1.63;;
40953;SDS011;26686;50.130;8.710;2023-06-04T11:57:53;2.05;;;0.60;;
40953;SDS011;26686;50.130;8.710;2023-06-04T12:02:55;2.03;;;0.90;;
40953;SDS011;26686;50.130;8.710;2023-06-04T12:08:04;2.47;;;0.73;;
40953;SDS011;26686;50.130;8.710;2023-06-04T12:13:08;1.95;;;0.90;;
40953;SDS011;26686;50.130;8.710;2023-06-04T12:18:10;3.90;;;0.98;;
40953;SDS011;26686;50.130;8.710;2023-06-04T12:23:19;2.30;;;0.80;;
40953;SDS011;26686;50.130;8.710;2023-06-04T12:28:21;2.53;;;1.05;;
40953;SDS011;26686;50.130;8.710;2023-06-04T12:33:22;1.75;;;0.80;;
40953;SDS011;26686;50.130;8.710;2023-06-04T12:38:24;2.53;;;0.95;;
40953;SDS011;26686;50.130;8.710;2023-06-04T12:43:25;1.10;;;0.70;;
40953;SDS011;26686;50.130;8.710;2023-06-04T12:48:27;3.17;;;0.80;;
40953;SDS011;26686;50.130;8.710;2023-06-04T12:53:28;3.38;;;1.02;;
40953;SDS011;26686;50.130;8.710;2023-06-04T12:58:30;2.75;;;0.68;;
40953;SDS011;26686;50.130;8.710;2023-06-04T13:03:31;2.30;;;0.98;;
40953;SDS011;26686;50.130;8.710;2023-06-04T13:08:34;0.98;;;0.70;;
40953;SDS011;26686;50.130;8.710;2023-06-04T13:13:36;2.40;;;1.17;;
40953;SDS011;26686;50.130;8.710;2023-06-04T13:18:38;2.10;;;0.90;;
40953;SDS011;26686;50.130;8.710;2023-06-04T13:23:40;1.50;;;0.93;;
40953;SDS011;26686;50.130;8.710;2023-06-04T13:28:51;2.00;;;1.02;;
40953;SDS011;26686;50.130;8.710;2023-06-04T13:33:52;3.28;;;0.88;;
40953;SDS011;26686;50.130;8.710;2023-06-04T13:38:54;1.17;;;0.68;;
40953;SDS011;26686;50.130;8.710;2023-06-04T13:43:56;1.30;;;0.90;;
40953;SDS011;26686;50.130;8.710;2023-06-04T13:48:57;2.50;;;0.90;;
40953;SDS011;26686;50.130;8.710;2023-06-04T13:53:59;1.92;;;0.73;;
40953;SDS011;26686;50.130;8.710;2023-06-04T13:59:00;1.70;;;0.70;;
40953;SDS011;26686;50.130;8.710;2023-06-04T14:04:02;1.20;;;0.90;;
40953;SDS011;26686;50.130;8.710;2023-06-04T14:09:07;2.55;;;0.70;;
40953;SDS011;26686;50.130;8.710;2023-06-04T14:14:10;0.70;;;0.55;;
40953;SDS011;26686;50.130;8.710;2023-06-04T14:19:12;2.55;;;1.13;;
40953;SDS011;26686;50.130;8.710;2023-06-04T14:24:14;1.42;;;1.08;;
40953;SDS011;26686;50.130;8.710;2023-06-04T14:29:15;4.75;;;1.13;;
40953;SDS011;26686;50.130;8.710;2023-06-04T14:34:17;2.17;;;1.27;;
40953;SDS011;26686;50.130;8.710;2023-06-04T14:39:19;3.13;;;1.20;;
40953;SDS011;26686;50.130;8.710;2023-06-04T14:44:23;1.90;;;1.35;;
40953;SDS011;26686;50.130;8.710;2023-06-04T14:49:24;3.00;;;1.35;;
40953;SDS011;26686;50.130;8.710;2023-06-04T14:54:26;2.28;;;1.08;;
40953;SDS011;26686;50.130;8.710;2023-06-04T14:59:27;1.88;;;1.45;;
40953;SDS011;26686;50.130;8.710;2023-06-04T15:04:29;1.88;;;1.17;;
40953;SDS011;26686;50.130;8.710;2023-06-04T15:09:30;3.13;;;1.33;;
40953;SDS011;26686;50.130;8.710;2023-06-04T15:14:32;3.08;;;1.35;;
40953;SDS011;26686;50.130;8.710;2023-06-04T15:19:33;2.70;;;1.30;;
40953;SDS011;26686;50.130;8.710;2023-06-04T15:24:35;3.50;;;1.67;;
40953;SDS011;26686;50.130;8.710;2023-06-04T15:29:36;2.60;;;1.63;;
40953;SDS011;26686;50.130;8.710;2023-06-04T15:34:37;2.47;;;2.00;;
40953;SDS011;26686;50.130;8.710;2023-06-04T15:39:39;4.43;;;2.42;;
40953;SDS011;26686;50.130;8.710;2023-06-04T15:44:42;2.95;;;2.25;;
40953;SDS011;26686;50.130;8.710;2023-06-04T15:49:44;3.03;;;2.10;;
40953;SDS011;26686;50.130;8.710;2023-06-04T15:54:45;3.00;;;2.30;;
40953;SDS011;26686;50.130;8.710;2023-06-04T15:59:47;2.63;;;2.28;;
40953;SDS011;26686;50.130;8.710;2023-06-04T16:04:49;3.55;;;2.22;;
40953;SDS011;26686;50.130;8.710;2023-06-04T16:09:50;7.30;;;3.00;;
40953;SDS011;26686;50.130;8.710;2023-06-04T16:14:52;6.63;;;3.45;;
40953;SDS011;26686;50.130;8.710;2023-06-04T16:19:53;3.83;;;2.83;;
40953;SDS011;26686;50.130;8.710;2023-06-04T16:24:55;3.55;;;2.58;;
40953;SDS011;26686;50.130;8.710;2023-06-04T16:29:57;3.30;;;3.00;;
40953;SDS011;26686;50.130;8.710;2023-06-04T16:34:58;5.25;;;3.85;;
40953;SDS011;26686;50.130;8.710;2023-06-04T16:40:03;3.85;;;3.50;;
40953;SDS011;26686;50.130;8.710;2023-06-04T16:45:05;3.60;;;3.30;;
40953;SDS011;26686;50.130;8.710;2023-06-04T16:55:10;5.25;;;3.63;;
40953;SDS011;26686;50.130;8.710;2023-06-04T17:00:12;3.40;;;2.83;;
40953;SDS011;26686;50.130;8.710;2023-06-04T17:05:28;2.75;;;2.22;;
40953;SDS011;26686;50.130;8.710;2023-06-04T17:10:30;6.35;;;2.08;;
40953;SDS011;26686;50.130;8.710;2023-06-04T17:15:33;3.10;;;2.30;;
40953;SDS011;26686;50.130;8.710;2023-06-04T17:20:35;2.40;;;2.17;;
40953;SDS011;26686;50.130;8.710;2023-06-04T17:25:36;2.30;;;1.40;;
40953;SDS011;26686;50.130;8.710;2023-06-04T17:30:38;2.10;;;1.70;;
40953;SDS011;26686;50.130;8.710;2023-06-04T17:35:40;1.75;;;1.42;;
40953;SDS011;26686;50.130;8.710;2023-06-04T17:40:41;2.03;;;1.30;;
40953;SDS011;26686;50.130;8.710;2023-06-04T17:45:43;2.22;;;1.52;;
40953;SDS011;26686;50.130;8.710;2023-06-04T17:50:45;2.83;;;1.48;;
40953;SDS011;26686;50.130;8.710;2023-06-04T17:55:46;2.42;;;1.60;;
40953;SDS011;26686;50.130;8.710;2023-06-04T18:00:47;1.95;;;1.45;;
40953;SDS011;26686;50.130;8.710;2023-06-04T18:05:49;2.20;;;1.38;;
40953;SDS011;26686;50.130;8.710;2023-06-04T18:10:51;2.08;;;1.35;;
40953;SDS011;26686;50.130;8.710;2023-06-04T18:15:53;2.72;;;1.27;;
40953;SDS011;26686;50.130;8.710;2023-06-04T18:20:56;3.65;;;1.98;;
40953;SDS011;26686;50.130;8.710;2023-06-04T18:25:58;2.38;;;1.80;;
40953;SDS011;26686;50.130;8.710;2023-06-04T18:31:00;2.20;;;1.40;;
40953;SDS011;26686;50.130;8.710;2023-06-04T18:36:01;5.13;;;1.15;;
40953;SDS011;26686;50.130;8.710;2023-06-04T18:41:03;2.90;;;1.48;;
40953;SDS011;26686;50.130;8.710;2023-06-04T18:46:05;2.05;;;1.38;;
40953;SDS011;26686;50.130;8.710;2023-06-04T18:51:06;3.60;;;1.10;;
40953;SDS011;26686;50.130;8.710;2023-06-04T18:56:08;2.45;;;1.00;;
40953;SDS011;26686;50.130;8.710;2023-06-04T19:01:10;1.45;;;1.02;;
40953;SDS011;26686;50.130;8.710;2023-06-04T19:06:12;1.30;;;1.00;;
40953;SDS011;26686;50.130;8.710;2023-06-04T19:11:13;1.85;;;1.00;;
40953;SDS011;26686;50.130;8.710;2023-06-04T19:16:14;1.77;;;1.25;;
40953;SDS011;26686;50.130;8.710;2023-06-04T19:21:16;1.50;;;1.00;;
40953;SDS011;26686;50.130;8.710;2023-06-04T19:26:18;1.75;;;1.13;;
40953;SDS011;26686;50.130;8.710;2023-06-04T19:31:20;2.17;;;0.90;;
40953;SDS011;26686;50.130;8.710;2023-06-04T19:36:28;1.92;;;1.00;;
40953;SDS011;26686;50.130;8.710;2023-06-04T19:41:29;2.60;;;1.17;;
40953;SDS011;26686;50.130;8.710;2023-06-04T19:46:31;1.08;;;0.80;;
40953;SDS011;26686;50.130;8.710;2023-06-04T19:51:32;1.70;;;0.90;;
40953;SDS011;26686;50.130;8.710;2023-06-04T19:56:34;2.00;;;0.90;;
40953;SDS011;26686;50.130;8.710;2023-06-04T20:01:35;2.05;;;1.08;;
40953;SDS011;26686;50.130;8.710;2023-06-04T20:06:38;1.52;;;0.90;;
40953;SDS011;26686;50.130;8.710;2023-06-04T20:11:39;3.83;;;1.52;;
40953;SDS011;26686;50.130;8.710;2023-06-04T20:16:41;1.95;;;0.80;;
40953;SDS011;26686;50.130;8.710;2023-06-04T20:21:42;2.55;;;1.25;;
40953;SDS011;26686;50.130;8.710;2023-06-04T20:26:44;1.70;;;0.80;;
40953;SDS011;26686;50.130;8.710;2023-06-04T20:31:46;1.05;;;0.73;;
40953;SDS011;26686;50.130;8.710;2023-06-04T20:36:48;2.35;;;0.82;;
40953;SDS011;26686;50.130;8.710;2023-06-04T20:41:49;2.95;;;1.08;;
40953;SDS011;26686;50.130;8.710;2023-06-04T20:46:51;2.45;;;1.73;;
40953;SDS011;26686;50.130;8.710;2023-06-04T20:51:52;2.72;;;1.10;;
40953;SDS011;26686;50.130;8.710;2023-06-04T20:56:54;2.90;;;1.00;;
40953;SDS011;26686;50.130;8.710;2023-06-04T21:01:56;3.17;;;1.33;;
40953;SDS011;26686;50.130;8.710;2023-06-04T21:06:58;1.70;;;1.08;;
40953;SDS011;26686;50.130;8.710;2023-06-04T21:11:59;2.40;;;0.90;;
40953;SDS011;26686;50.130;8.710;2023-06-04T21:17:02;1.98;;;0.90;;
40953;SDS011;26686;50.130;8.710;2023-06-04T21:22:03;3.22;;;0.90;;
40953;SDS011;26686;50.130;8.710;2023-06-04T21:27:05;1.10;;;0.70;;
40953;SDS011;26686;50.130;8.710;2023-06-04T21:32:06;3.67;;;0.85;;
40953;SDS011;26686;50.130;8.710;2023-06-04T21:37:08;2.33;;;0.70;;
40953;SDS011;26686;50.130;8.710;2023-06-04T21:42:11;1.87;;;0.97;;
40953;SDS011;26686;50.130;8.710;2023-06-04T21:47:12;2.08;;;0.73;;
40953;SDS011;26686;50.130;8.710;2023-06-04T21:52:14;1.80;;;0.77;;
40953;SDS011;26686;50.130;8.710;2023-06-04T21:57:26;1.45;;;0.90;;
40953;SDS011;26686;50.130;8.710;2023-06-04T22:02:27;3.70;;;1.15;;
40953;SDS011;26686;50.130;8.710;2023-06-04T22:07:29;1.50;;;0.95;;
40953;SDS011;26686;50.130;8.710;2023-06-04T22:12:30;1.27;;;1.00;;
40953;SDS011;26686;50.130;8.710;2023-06-04T22:17:32;6.10;;;1.60;;
40953;SDS011;26686;50.130;8.710;2023-06-04T22:22:33;0.80;;;0.70;;
40953;SDS011;26686;50.130;8.710;2023-06-04T22:27:35;1.70;;;0.98;;
40953;SDS011;26686;50.130;8.710;2023-06-04T22:32:37;1.45;;;1.00;;
40953;SDS011;26686;50.130;8.710;2023-06-04T22:37:38;2.60;;;0.90;;
40953;SDS011;26686;50.130;8.710;2023-06-04T22:42:40;3.13;;;1.42;;
40953;SDS011;26686;50.130;8.710;2023-06-04T22:47:41;1.65;;;0.90;;
40953;SDS011;26686;50.130;8.710;2023-06-04T22:52:43;1.73;;;0.90;;
40953;SDS011;26686;50.130;8.710;2023-06-04T22:57:44;2.08;;;1.00;;
40953;SDS011;26686;50.130;8.710;2023-06-04T23:02:46;1.33;;;0.80;;
40953;SDS011;26686;50.130;8.710;2023-06-04T23:07:48;2.20;;;0.88;;
40953;SDS011;26686;50.130;8.710;2023-06-04T23:12:50;1.85;;;1.10;;
40953;SDS011;26686;50.130;8.710;2023-06-04T23:17:52;2.97;;;0.80;;
40953;SDS011;26686;50.130;8.710;2023-06-04T23:22:53;1.80;;;0.90;;
40953;SDS011;26686;50.130;8.710;2023-06-04T23:27:55;1.85;;;1.17;;
40953;SDS011;26686;50.130;8.710;2023-06-04T23:32:56;2.08;;;0.95;;
40953;SDS011;26686;50.130;8.710;2023-06-04T23:38:00;3.75;;;1.00;;
40953;SDS011;26686;50.130;8.710;2023-06-04T23:43:02;6.07;;;1.25;;
40953;SDS011;26686;50.130;8.710;2023-06-04T23:48:03;2.38;;;1.00;;
40953;SDS011;26686;50.130;8.710;2023-06-04T23:53:05;1.10;;;0.73;;
40953;SDS011;26686;50.130;8.710;2023-06-04T23:58:06;1.23;;;0.57;;
